Terminal Aerodrome Forecast
Issued by NWS

Home | Current Version | Previous Version | Graphics & Text | Print | Product List | Glossary On
Versions: 1 2 3 4 5 6 7 8 9 10 11 12 13 14 15 16 17 18 19 20 21 22 23 24 25 26 27 28 29 30 31 32 33 34 35 36 37
000
FTUS43 KLOT 310500 RRA
TAFORD
TAF
KORD 310546Z 3106/0112 30011G17KT P6SM -SHRA SCT025 OVC035
     FM310800 32016G26KT P6SM -SHRA SCT010 OVC025
     FM311200 34023G32KT 6SM -SHSN BKN020 OVC035
     FM311500 36026G40KT P6SM BKN035
     FM312300 36020G30KT P6SM BKN035
     FM010300 35015G24KT P6SM BKN035
     FM010800 35012KT P6SM BKN030=

USA.gov is the U.S. government's official web portal to all federal, state and local government web resources and services.